sensor_id;sensor_type;location;lat;lon;timestamp;pressure;altitude;pressure_sealevel;temperature;humidity
15487;BME280;7845;53.698;10.078;2023-04-19T00:00:33;102902.41;;;10.72;100.00
15487;BME280;7845;53.698;10.078;2023-04-19T00:03:00;102895.16;;;10.60;100.00
15487;BME280;7845;53.698;10.078;2023-04-19T00:05:26;102906.69;;;10.37;100.00
15487;BME280;7845;53.698;10.078;2023-04-19T00:07:52;102895.91;;;10.25;100.00
15487;BME280;7845;53.698;10.078;2023-04-19T00:10:18;102887.97;;;10.22;100.00
15487;BME280;7845;53.698;10.078;2023-04-19T00:12:44;102894.25;;;10.28;100.00
15487;BME280;7845;53.698;10.078;2023-04-19T00:15:09;102891.63;;;10.27;100.00
15487;BME280;7845;53.698;10.078;2023-04-19T00:17:35;102887.13;;;10.21;100.00
15487;BME280;7845;53.698;10.078;2023-04-19T00:20:03;102886.00;;;10.13;100.00
15487;BME280;7845;53.698;10.078;2023-04-19T00:22:29;102886.59;;;10.34;100.00
15487;BME280;7845;53.698;10.078;2023-04-19T00:25:01;102877.84;;;10.32;100.00
15487;BME280;7845;53.698;10.078;2023-04-19T00:27:32;102872.19;;;10.48;100.00
15487;BME280;7845;53.698;10.078;2023-04-19T00:30:04;102864.66;;;10.28;100.00
15487;BME280;7845;53.698;10.078;2023-04-19T00:32:29;102871.63;;;10.27;100.00
15487;BME280;7845;53.698;10.078;2023-04-19T00:34:55;102866.84;;;9.83;100.00
15487;BME280;7845;53.698;10.078;2023-04-19T00:37:20;102869.56;;;10.16;100.00
15487;BME280;7845;53.698;10.078;2023-04-19T00:39:45;102862.28;;;10.35;100.00
15487;BME280;7845;53.698;10.078;2023-04-19T00:42:11;102868.50;;;10.11;100.00
15487;BME280;7845;53.698;10.078;2023-04-19T00:44:37;102866.25;;;10.21;100.00
15487;BME280;7845;53.698;10.078;2023-04-19T00:47:02;102865.44;;;10.24;100.00
15487;BME280;7845;53.698;10.078;2023-04-19T00:49:28;102869.22;;;10.35;100.00
15487;BME280;7845;53.698;10.078;2023-04-19T00:51:53;102855.91;;;10.24;100.00
15487;BME280;7845;53.698;10.078;2023-04-19T00:54:20;102851.69;;;10.29;100.00
15487;BME280;7845;53.698;10.078;2023-04-19T00:56:45;102854.69;;;10.13;100.00
15487;BME280;7845;53.698;10.078;2023-04-19T00:59:13;102859.97;;;10.15;100.00
15487;BME280;7845;53.698;10.078;2023-04-19T01:04:10;102869.88;;;9.98;100.00
15487;BME280;7845;53.698;10.078;2023-04-19T01:06:36;102866.16;;;9.88;100.00
15487;BME280;7845;53.698;10.078;2023-04-19T01:09:02;102865.00;;;10.10;100.00
15487;BME280;7845;53.698;10.078;2023-04-19T01:11:27;102862.78;;;10.22;100.00
15487;BME280;7845;53.698;10.078;2023-04-19T01:13:54;102863.22;;;10.08;100.00
15487;BME280;7845;53.698;10.078;2023-04-19T01:16:20;102868.53;;;9.81;100.00
15487;BME280;7845;53.698;10.078;2023-04-19T01:18:46;102865.47;;;9.95;100.00
15487;BME280;7845;53.698;10.078;2023-04-19T01:21:11;102865.06;;;10.12;100.00
15487;BME280;7845;53.698;10.078;2023-04-19T01:23:37;102859.28;;;10.22;100.00
15487;BME280;7845;53.698;10.078;2023-04-19T01:26:03;102855.19;;;10.31;100.00
15487;BME280;7845;53.698;10.078;2023-04-19T01:28:29;102859.34;;;10.23;100.00
15487;BME280;7845;53.698;10.078;2023-04-19T01:30:54;102855.41;;;10.39;100.00
15487;BME280;7845;53.698;10.078;2023-04-19T01:33:20;102849.25;;;10.37;100.00
15487;BME280;7845;53.698;10.078;2023-04-19T01:35:46;102851.25;;;10.14;100.00
15487;BME280;7845;53.698;10.078;2023-04-19T01:38:12;102855.66;;;10.15;100.00
15487;BME280;7845;53.698;10.078;2023-04-19T01:40:37;102857.88;;;10.34;100.00
15487;BME280;7845;53.698;10.078;2023-04-19T01:43:03;102849.41;;;10.43;100.00
15487;BME280;7845;53.698;10.078;2023-04-19T01:45:28;102852.47;;;10.27;100.00
15487;BME280;7845;53.698;10.078;2023-04-19T01:47:53;102847.50;;;10.36;100.00
15487;BME280;7845;53.698;10.078;2023-04-19T01:50:20;102840.91;;;10.17;100.00
15487;BME280;7845;53.698;10.078;2023-04-19T01:52:45;102839.44;;;10.27;100.00
15487;BME280;7845;53.698;10.078;2023-04-19T01:55:10;102842.41;;;10.09;100.00
15487;BME280;7845;53.698;10.078;2023-04-19T01:57:36;102838.59;;;9.98;100.00
15487;BME280;7845;53.698;10.078;2023-04-19T02:00:01;102833.91;;;10.16;100.00
15487;BME280;7845;53.698;10.078;2023-04-19T02:02:26;102826.25;;;10.22;100.00
15487;BME280;7845;53.698;10.078;2023-04-19T02:04:52;102820.94;;;10.19;100.00
15487;BME280;7845;53.698;10.078;2023-04-19T02:07:17;102814.25;;;10.29;100.00
15487;BME280;7845;53.698;10.078;2023-04-19T02:09:42;102825.19;;;9.56;100.00
15487;BME280;7845;53.698;10.078;2023-04-19T02:12:08;102833.06;;;9.28;100.00
15487;BME280;7845;53.698;10.078;2023-04-19T02:14:34;102839.13;;;9.57;100.00
15487;BME280;7845;53.698;10.078;2023-04-19T02:16:59;102846.41;;;9.67;100.00
15487;BME280;7845;53.698;10.078;2023-04-19T02:19:24;102842.34;;;9.76;100.00
15487;BME280;7845;53.698;10.078;2023-04-19T02:21:50;102846.03;;;9.55;100.00
15487;BME280;7845;53.698;10.078;2023-04-19T02:24:15;102845.28;;;9.88;100.00
15487;BME280;7845;53.698;10.078;2023-04-19T02:26:41;102840.84;;;9.56;100.00
15487;BME280;7845;53.698;10.078;2023-04-19T02:29:06;102835.81;;;9.92;100.00
15487;BME280;7845;53.698;10.078;2023-04-19T02:31:31;102840.28;;;9.66;100.00
15487;BME280;7845;53.698;10.078;2023-04-19T02:33:57;102839.00;;;9.82;100.00
15487;BME280;7845;53.698;10.078;2023-04-19T02:36:22;102836.13;;;9.73;100.00
15487;BME280;7845;53.698;10.078;2023-04-19T02:38:48;102847.41;;;9.15;100.00
15487;BME280;7845;53.698;10.078;2023-04-19T02:41:13;102842.72;;;9.60;100.00
15487;BME280;7845;53.698;10.078;2023-04-19T02:43:39;102841.56;;;9.51;100.00
15487;BME280;7845;53.698;10.078;2023-04-19T02:46:05;102836.22;;;9.46;100.00
15487;BME280;7845;53.698;10.078;2023-04-19T02:48:30;102833.28;;;9.65;100.00
15487;BME280;7845;53.698;10.078;2023-04-19T02:50:55;102840.34;;;9.39;100.00
15487;BME280;7845;53.698;10.078;2023-04-19T02:53:21;102828.84;;;9.61;100.00
15487;BME280;7845;53.698;10.078;2023-04-19T02:55:46;102831.31;;;9.57;100.00
15487;BME280;7845;53.698;10.078;2023-04-19T02:58:11;102832.53;;;9.39;100.00
15487;BME280;7845;53.698;10.078;2023-04-19T03:00:37;102835.34;;;9.47;100.00
15487;BME280;7845;53.698;10.078;2023-04-19T03:03:03;102833.19;;;9.62;100.00
15487;BME280;7845;53.698;10.078;2023-04-19T03:05:28;102823.19;;;9.76;100.00
15487;BME280;7845;53.698;10.078;2023-04-19T03:07:54;102822.56;;;9.84;100.00
15487;BME280;7845;53.698;10.078;2023-04-19T03:10:21;102813.41;;;9.69;100.00
15487;BME280;7845;53.698;10.078;2023-04-19T03:12:46;102820.94;;;9.58;100.00
15487;BME280;7845;53.698;10.078;2023-04-19T03:15:13;102815.63;;;9.85;100.00
15487;BME280;7845;53.698;10.078;2023-04-19T03:17:39;102810.50;;;9.88;100.00
15487;BME280;7845;53.698;10.078;2023-04-19T03:20:05;102809.59;;;9.87;100.00
15487;BME280;7845;53.698;10.078;2023-04-19T03:22:33;102813.13;;;9.89;100.00
15487;BME280;7845;53.698;10.078;2023-04-19T03:24:59;102793.50;;;10.03;100.00
15487;BME280;7845;53.698;10.078;2023-04-19T03:27:24;102795.13;;;9.98;100.00
15487;BME280;7845;53.698;10.078;2023-04-19T03:29:49;102791.38;;;9.89;100.00
15487;BME280;7845;53.698;10.078;2023-04-19T03:32:15;102793.50;;;10.02;100.00
15487;BME280;7845;53.698;10.078;2023-04-19T03:34:40;102790.25;;;9.79;100.00
15487;BME280;7845;53.698;10.078;2023-04-19T03:37:07;102791.44;;;9.90;100.00
15487;BME280;7845;53.698;10.078;2023-04-19T03:39:32;102788.22;;;10.00;100.00
15487;BME280;7845;53.698;10.078;2023-04-19T03:41:57;102781.28;;;10.01;100.00
15487;BME280;7845;53.698;10.078;2023-04-19T03:44:23;102781.75;;;9.86;100.00
15487;BME280;7845;53.698;10.078;2023-04-19T03:46:48;102784.34;;;9.86;100.00
15487;BME280;7845;53.698;10.078;2023-04-19T03:49:14;102780.84;;;9.86;100.00
15487;BME280;7845;53.698;10.078;2023-04-19T03:51:39;102779.38;;;9.94;100.00
15487;BME280;7845;53.698;10.078;2023-04-19T03:54:06;102768.16;;;9.98;100.00
15487;BME280;7845;53.698;10.078;2023-04-19T03:56:31;102779.84;;;9.81;100.00
15487;BME280;7845;53.698;10.078;2023-04-19T03:58:57;102774.00;;;9.89;100.00
15487;BME280;7845;53.698;10.078;2023-04-19T04:01:22;102775.03;;;9.94;100.00
15487;BME280;7845;53.698;10.078;2023-04-19T04:03:48;102775.09;;;9.97;100.00
15487;BME280;7845;53.698;10.078;2023-04-19T04:06:13;102764.34;;;9.85;100.00
15487;BME280;7845;53.698;10.078;2023-04-19T04:08:39;102775.06;;;9.96;100.00
15487;BME280;7845;53.698;10.078;2023-04-19T04:11:04;102767.41;;;10.03;100.00
15487;BME280;7845;53.698;10.078;2023-04-19T04:13:30;102768.59;;;9.82;100.00
15487;BME280;7845;53.698;10.078;2023-04-19T04:15:56;102780.03;;;9.56;100.00
15487;BME280;7845;53.698;10.078;2023-04-19T04:18:22;102775.38;;;9.75;100.00
15487;BME280;7845;53.698;10.078;2023-04-19T04:20:47;102767.53;;;9.75;100.00
15487;BME280;7845;53.698;10.078;2023-04-19T04:23:14;102767.81;;;9.55;100.00
15487;BME280;7845;53.698;10.078;2023-04-19T04:25:40;102776.72;;;9.61;100.00
15487;BME280;7845;53.698;10.078;2023-04-19T04:28:07;102770.34;;;9.83;100.00
15487;BME280;7845;53.698;10.078;2023-04-19T04:30:34;102765.34;;;9.90;100.00
15487;BME280;7845;53.698;10.078;2023-04-19T04:33:00;102768.13;;;9.96;100.00
15487;BME280;7845;53.698;10.078;2023-04-19T04:35:26;102765.03;;;10.11;100.00
15487;BME280;7845;53.698;10.078;2023-04-19T04:37:53;102765.75;;;10.06;100.00
15487;BME280;7845;53.698;10.078;2023-04-19T04:40:18;102761.06;;;10.24;100.00
15487;BME280;7845;53.698;10.078;2023-04-19T04:42:44;102759.09;;;10.15;100.00
15487;BME280;7845;53.698;10.078;2023-04-19T04:45:10;102763.09;;;10.35;100.00
15487;BME280;7845;53.698;10.078;2023-04-19T04:47:36;102762.72;;;10.22;100.00
15487;BME280;7845;53.698;10.078;2023-04-19T04:50:02;102758.00;;;10.09;100.00
15487;BME280;7845;53.698;10.078;2023-04-19T04:52:28;102756.31;;;10.11;100.00
15487;BME280;7845;53.698;10.078;2023-04-19T04:54:53;102763.22;;;10.09;100.00
15487;BME280;7845;53.698;10.078;2023-04-19T04:57:19;102757.97;;;10.07;100.00
15487;BME280;7845;53.698;10.078;2023-04-19T04:59:44;102768.22;;;9.99;100.00
15487;BME280;7845;53.698;10.078;2023-04-19T05:02:13;102755.25;;;10.02;100.00
15487;BME280;7845;53.698;10.078;2023-04-19T05:04:39;102760.16;;;9.92;100.00
15487;BME280;7845;53.698;10.078;2023-04-19T05:07:04;102752.00;;;10.13;100.00
15487;BME280;7845;53.698;10.078;2023-04-19T05:09:31;102755.41;;;9.77;100.00
15487;BME280;7845;53.698;10.078;2023-04-19T05:11:58;102771.22;;;9.52;100.00
15487;BME280;7845;53.698;10.078;2023-04-19T05:14:24;102757.97;;;10.07;100.00
15487;BME280;7845;53.698;10.078;2023-04-19T05:16:50;102746.06;;;10.15;100.00
15487;BME280;7845;53.698;10.078;2023-04-19T05:19:15;102749.72;;;9.92;100.00
15487;BME280;7845;53.698;10.078;2023-04-19T05:21:41;102745.19;;;10.16;100.00
15487;BME280;7845;53.698;10.078;2023-04-19T05:24:06;102751.91;;;10.08;100.00
15487;BME280;7845;53.698;10.078;2023-04-19T05:26:34;102745.13;;;10.47;100.00
15487;BME280;7845;53.698;10.078;2023-04-19T05:29:00;102751.66;;;9.99;100.00
15487;BME280;7845;53.698;10.078;2023-04-19T05:31:26;102751.66;;;10.66;100.00
15487;BME280;7845;53.698;10.078;2023-04-19T05:33:51;102745.56;;;10.66;100.00
15487;BME280;7845;53.698;10.078;2023-04-19T05:36:16;102730.94;;;11.13;100.00
15487;BME280;7845;53.698;10.078;2023-04-19T05:38:42;102723.03;;;11.51;100.00
15487;BME280;7845;53.698;10.078;2023-04-19T05:41:07;102715.25;;;11.54;100.00
15487;BME280;7845;53.698;10.078;2023-04-19T05:43:32;102726.53;;;10.71;100.00
15487;BME280;7845;53.698;10.078;2023-04-19T05:45:59;102723.03;;;11.09;100.00
15487;BME280;7845;53.698;10.078;2023-04-19T05:48:24;102715.47;;;11.22;100.00
15487;BME280;7845;53.698;10.078;2023-04-19T05:50:50;102722.59;;;11.30;100.00
15487;BME280;7845;53.698;10.078;2023-04-19T05:53:18;102728.53;;;10.83;100.00
15487;BME280;7845;53.698;10.078;2023-04-19T05:55:43;102716.66;;;11.39;100.00
15487;BME280;7845;53.698;10.078;2023-04-19T05:58:12;102726.75;;;10.80;100.00
15487;BME280;7845;53.698;10.078;2023-04-19T06:00:37;102723.28;;;11.22;100.00
15487;BME280;7845;53.698;10.078;2023-04-19T06:03:03;102722.22;;;10.73;100.00
15487;BME280;7845;53.698;10.078;2023-04-19T06:05:28;102711.69;;;11.09;100.00
15487;BME280;7845;53.698;10.078;2023-04-19T06:07:54;102711.06;;;11.21;100.00
15487;BME280;7845;53.698;10.078;2023-04-19T06:10:21;102704.31;;;11.30;100.00
15487;BME280;7845;53.698;10.078;2023-04-19T06:12:47;102709.16;;;11.12;100.00
15487;BME280;7845;53.698;10.078;2023-04-19T06:15:12;102715.13;;;11.48;100.00
15487;BME280;7845;53.698;10.078;2023-04-19T06:17:39;102711.66;;;11.49;100.00
15487;BME280;7845;53.698;10.078;2023-04-19T06:20:06;102703.50;;;11.76;100.00
15487;BME280;7845;53.698;10.078;2023-04-19T06:22:32;102712.47;;;11.45;100.00
15487;BME280;7845;53.698;10.078;2023-04-19T06:24:58;102708.47;;;11.64;100.00
15487;BME280;7845;53.698;10.078;2023-04-19T06:27:24;102715.44;;;11.63;100.00
15487;BME280;7845;53.698;10.078;2023-04-19T06:29:50;102704.38;;;11.77;100.00
15487;BME280;7845;53.698;10.078;2023-04-19T06:32:15;102703.72;;;11.43;98.52
15487;BME280;7845;53.698;10.078;2023-04-19T06:34:42;102701.06;;;11.85;98.69
15487;BME280;7845;53.698;10.078;2023-04-19T06:37:07;102692.16;;;12.28;98.19
15487;BME280;7845;53.698;10.078;2023-04-19T06:39:32;102692.69;;;12.06;94.96
15487;BME280;7845;53.698;10.078;2023-04-19T06:41:57;102694.38;;;12.56;96.81
15487;BME280;7845;53.698;10.078;2023-04-19T06:44:23;102690.03;;;12.58;95.10
15487;BME280;7845;53.698;10.078;2023-04-19T06:46:48;102683.53;;;12.32;91.71
15487;BME280;7845;53.698;10.078;2023-04-19T06:49:14;102687.03;;;12.34;89.03
15487;BME280;7845;53.698;10.078;2023-04-19T06:51:39;102689.13;;;12.58;89.40
15487;BME280;7845;53.698;10.078;2023-04-19T06:54:05;102690.44;;;12.29;89.10
15487;BME280;7845;53.698;10.078;2023-04-19T06:56:48;102683.03;;;12.57;87.38
15487;BME280;7845;53.698;10.078;2023-04-19T06:59:16;102674.31;;;12.57;87.85
15487;BME280;7845;53.698;10.078;2023-04-19T07:01:42;102672.00;;;12.80;85.86
15487;BME280;7845;53.698;10.078;2023-04-19T07:04:08;102658.03;;;12.81;83.31
15487;BME280;7845;53.698;10.078;2023-04-19T07:06:35;102675.31;;;13.32;85.76
15487;BME280;7845;53.698;10.078;2023-04-19T07:09:01;102671.78;;;13.29;84.68
15487;BME280;7845;53.698;10.078;2023-04-19T07:11:28;102657.69;;;13.19;81.64
15487;BME280;7845;53.698;10.078;2023-04-19T07:13:54;102648.50;;;13.59;81.69
15487;BME280;7845;53.698;10.078;2023-04-19T07:16:21;102653.94;;;13.80;80.11
15487;BME280;7845;53.698;10.078;2023-04-19T07:18:46;102653.19;;;13.09;80.48
15487;BME280;7845;53.698;10.078;2023-04-19T07:21:13;102645.16;;;13.75;79.69
15487;BME280;7845;53.698;10.078;2023-04-19T07:23:38;102642.13;;;13.36;78.32
15487;BME280;7845;53.698;10.078;2023-04-19T07:26:06;102646.81;;;13.64;78.60
15487;BME280;7845;53.698;10.078;2023-04-19T07:28:31;102626.94;;;13.91;76.92
15487;BME280;7845;53.698;10.078;2023-04-19T07:30:57;102635.53;;;13.73;76.68
15487;BME280;7845;53.698;10.078;2023-04-19T07:33:23;102643.06;;;14.37;78.49
15487;BME280;7845;53.698;10.078;2023-04-19T07:35:52;102641.38;;;14.49;76.79
15487;BME280;7845;53.698;10.078;2023-04-19T07:38:18;102635.25;;;14.50;78.96
15487;BME280;7845;53.698;10.078;2023-04-19T07:40:43;102625.69;;;14.56;77.17
15487;BME280;7845;53.698;10.078;2023-04-19T07:43:09;102611.44;;;14.27;74.05
15487;BME280;7845;53.698;10.078;2023-04-19T07:45:36;102621.97;;;14.31;74.27
15487;BME280;7845;53.698;10.078;2023-04-19T07:48:01;102632.34;;;14.09;74.10
15487;BME280;7845;53.698;10.078;2023-04-19T07:50:28;102630.53;;;14.03;74.35
15487;BME280;7845;53.698;10.078;2023-04-19T07:52:54;102628.28;;;14.55;75.38
15487;BME280;7845;53.698;10.078;2023-04-19T07:55:21;102640.44;;;14.36;74.58
15487;BME280;7845;53.698;10.078;2023-04-19T07:57:48;102615.16;;;14.58;73.59
15487;BME280;7845;53.698;10.078;2023-04-19T08:00:14;102620.38;;;14.50;72.24
15487;BME280;7845;53.698;10.078;2023-04-19T08:02:47;102618.78;;;14.79;71.58
15487;BME280;7845;53.698;10.078;2023-04-19T08:05:14;102611.41;;;14.22;71.29
15487;BME280;7845;53.698;10.078;2023-04-19T08:07:41;102613.25;;;14.34;71.28
15487;BME280;7845;53.698;10.078;2023-04-19T08:10:07;102608.34;;;14.93;71.80
15487;BME280;7845;53.698;10.078;2023-04-19T08:12:33;102617.09;;;14.98;73.54
15487;BME280;7845;53.698;10.078;2023-04-19T08:14:58;102599.38;;;14.55;69.23
15487;BME280;7845;53.698;10.078;2023-04-19T08:17:24;102603.78;;;14.57;70.50
15487;BME280;7845;53.698;10.078;2023-04-19T08:19:51;102612.72;;;15.00;71.16
15487;BME280;7845;53.698;10.078;2023-04-19T08:22:16;102603.09;;;15.04;69.60
15487;BME280;7845;53.698;10.078;2023-04-19T08:24:42;102602.31;;;15.32;70.56
15487;BME280;7845;53.698;10.078;2023-04-19T08:27:09;102593.50;;;15.19;68.31
15487;BME280;7845;53.698;10.078;2023-04-19T08:29:37;102588.25;;;15.36;66.13
15487;BME280;7845;53.698;10.078;2023-04-19T08:32:05;102590.00;;;15.11;66.99
15487;BME280;7845;53.698;10.078;2023-04-19T08:34:34;102579.44;;;15.17;65.79
15487;BME280;7845;53.698;10.078;2023-04-19T08:37:01;102581.28;;;15.45;67.01
15487;BME280;7845;53.698;10.078;2023-04-19T08:39:27;102583.97;;;15.50;67.25
15487;BME280;7845;53.698;10.078;2023-04-19T08:41:54;102595.25;;;15.29;66.88
15487;BME280;7845;53.698;10.078;2023-04-19T08:44:21;102569.91;;;15.86;65.19
15487;BME280;7845;53.698;10.078;2023-04-19T08:46:48;102571.66;;;15.61;65.88
15487;BME280;7845;53.698;10.078;2023-04-19T08:49:15;102574.28;;;15.57;66.40
15487;BME280;7845;53.698;10.078;2023-04-19T08:51:43;102572.50;;;15.95;66.84
15487;BME280;7845;53.698;10.078;2023-04-19T08:54:09;102567.28;;;15.69;64.42
15487;BME280;7845;53.698;10.078;2023-04-19T08:56:36;102553.19;;;16.11;64.13
15487;BME280;7845;53.698;10.078;2023-04-19T08:59:01;102552.28;;;16.23;64.14
15487;BME280;7845;53.698;10.078;2023-04-19T09:01:27;102555.00;;;15.73;62.14
15487;BME280;7845;53.698;10.078;2023-04-19T09:03:53;102545.28;;;16.08;61.33
15487;BME280;7845;53.698;10.078;2023-04-19T09:06:19;102546.16;;;16.09;60.96
15487;BME280;7845;53.698;10.078;2023-04-19T09:08:44;102537.44;;;15.72;61.48
15487;BME280;7845;53.698;10.078;2023-04-19T09:11:10;102544.44;;;15.88;61.30
15487;BME280;7845;53.698;10.078;2023-04-19T09:13:35;102540.91;;;16.02;60.89
15487;BME280;7845;53.698;10.078;2023-04-19T09:16:03;102528.50;;;16.42;61.01
15487;BME280;7845;53.698;10.078;2023-04-19T09:18:29;102527.69;;;16.24;61.07
15487;BME280;7845;53.698;10.078;2023-04-19T09:20:55;102538.34;;;15.65;59.63
15487;BME280;7845;53.698;10.078;2023-04-19T09:23:25;102520.75;;;15.80;57.10
15487;BME280;7845;53.698;10.078;2023-04-19T09:28:18;102521.56;;;16.11;57.22
15487;BME280;7845;53.698;10.078;2023-04-19T09:30:44;102488.25;;;15.87;53.38
15487;BME280;7845;53.698;10.078;2023-04-19T09:33:09;102497.84;;;16.11;54.27
15487;BME280;7845;53.698;10.078;2023-04-19T09:35:39;102490.88;;;15.90;48.59
15487;BME280;7845;53.698;10.078;2023-04-19T09:38:06;102466.34;;;15.75;47.50
15487;BME280;7845;53.698;10.078;2023-04-19T09:40:31;102454.88;;;15.95;47.66
15487;BME280;7845;53.698;10.078;2023-04-19T09:42:57;102468.03;;;16.09;47.45
15487;BME280;7845;53.698;10.078;2023-04-19T09:45:22;102460.16;;;15.92;45.28
15487;BME280;7845;53.698;10.078;2023-04-19T09:48:04;102440.00;;;15.85;43.12
15487;BME280;7845;53.698;10.078;2023-04-19T09:50:31;102431.19;;;15.91;42.68
15487;BME280;7845;53.698;10.078;2023-04-19T09:52:57;102438.97;;;16.26;44.16
15487;BME280;7845;53.698;10.078;2023-04-19T09:55:24;102438.16;;;16.01;42.46
15487;BME280;7845;53.698;10.078;2023-04-19T09:57:51;102440.75;;;16.13;41.79
15487;BME280;7845;53.698;10.078;2023-04-19T10:00:17;102425.78;;;16.30;42.71
15487;BME280;7845;53.698;10.078;2023-04-19T10:02:43;102453.16;;;15.94;43.53
15487;BME280;7845;53.698;10.078;2023-04-19T10:05:09;102450.97;;;16.86;46.61
15487;BME280;7845;53.698;10.078;2023-04-19T10:07:36;102440.75;;;16.13;43.44
15487;BME280;7845;53.698;10.078;2023-04-19T10:10:03;102425.75;;;16.35;42.66
15487;BME280;7845;53.698;10.078;2023-04-19T10:12:31;102416.94;;;16.34;41.21
15487;BME280;7845;53.698;10.078;2023-04-19T10:14:57;102416.19;;;16.11;39.73
15487;BME280;7845;53.698;10.078;2023-04-19T10:17:23;102382.84;;;16.01;36.88
15487;BME280;7845;53.698;10.078;2023-04-19T10:19:57;102398.66;;;16.02;38.62
15487;BME280;7845;53.698;10.078;2023-04-19T10:22:24;102390.53;;;16.54;39.99
15487;BME280;7845;53.698;10.078;2023-04-19T10:25:12;102402.16;;;16.06;38.81
15487;BME280;7845;53.698;10.078;2023-04-19T10:27:39;102383.59;;;16.29;37.84
15487;BME280;7845;53.698;10.078;2023-04-19T10:30:16;102390.69;;;16.19;38.66
15487;BME280;7845;53.698;10.078;2023-04-19T10:32:44;102384.53;;;16.23;38.25
15487;BME280;7845;53.698;10.078;2023-04-19T10:35:20;102383.69;;;16.18;37.67
15487;BME280;7845;53.698;10.078;2023-04-19T10:38:09;102364.97;;;16.62;36.46
15487;BME280;7845;53.698;10.078;2023-04-19T10:43:24;102372.09;;;16.45;36.09
15487;BME280;7845;53.698;10.078;2023-04-19T10:45:50;102358.94;;;16.37;36.13
15487;BME280;7845;53.698;10.078;2023-04-19T10:51:13;102361.69;;;16.22;36.03
15487;BME280;7845;53.698;10.078;2023-04-19T10:53:57;102361.72;;;16.18;35.55
15487;BME280;7845;53.698;10.078;2023-04-19T11:01:42;102348.41;;;16.39;34.72
15487;BME280;7845;53.698;10.078;2023-04-19T11:06:57;102330.16;;;16.04;32.59
15487;BME280;7845;53.698;10.078;2023-04-19T11:11:51;102331.09;;;15.97;32.04
15487;BME280;7845;53.698;10.078;2023-04-19T11:14:19;102337.06;;;16.26;33.07
15487;BME280;7845;53.698;10.078;2023-04-19T11:16:45;102317.78;;;16.24;32.44
15487;BME280;7845;53.698;10.078;2023-04-19T11:19:17;102327.31;;;16.42;32.52
15487;BME280;7845;53.698;10.078;2023-04-19T11:21:45;102323.06;;;16.21;31.98
15487;BME280;7845;53.698;10.078;2023-04-19T11:24:12;102318.06;;;15.64;32.48
15487;BME280;7845;53.698;10.078;2023-04-19T11:26:46;102318.81;;;15.90;31.73
15487;BME280;7845;53.698;10.078;2023-04-19T11:29:18;102317.69;;;16.35;32.45
15487;BME280;7845;53.698;10.078;2023-04-19T11:31:45;102329.94;;;16.42;33.12
15487;BME280;7845;53.698;10.078;2023-04-19T11:34:11;102307.13;;;16.38;32.79
15487;BME280;7845;53.698;10.078;2023-04-19T11:36:51;102325.69;;;16.17;33.37
15487;BME280;7845;53.698;10.078;2023-04-19T11:39:17;102324.03;;;16.03;32.97
15487;BME280;7845;53.698;10.078;2023-04-19T11:41:43;102331.78;;;16.25;33.82
15487;BME280;7845;53.698;10.078;2023-04-19T11:44:18;102314.16;;;16.34;33.39
15487;BME280;7845;53.698;10.078;2023-04-19T11:47:02;102312.69;;;15.88;32.34
15487;BME280;7845;53.698;10.078;2023-04-19T11:49:29;102312.34;;;16.48;33.55
15487;BME280;7845;53.698;10.078;2023-04-19T11:51:59;102318.38;;;16.64;33.00
15487;BME280;7845;53.698;10.078;2023-04-19T11:54:28;102315.06;;;16.36;33.11
15487;BME280;7845;53.698;10.078;2023-04-19T11:57:01;102296.50;;;16.47;32.73
15487;BME280;7845;53.698;10.078;2023-04-19T11:59:34;102288.00;;;16.09;31.10
15487;BME280;7845;53.698;10.078;2023-04-19T12:02:11;102302.22;;;15.71;30.85
15487;BME280;7845;53.698;10.078;2023-04-19T12:04:37;102307.28;;;16.11;31.93
15487;BME280;7845;53.698;10.078;2023-04-19T12:07:05;102303.47;;;16.62;32.25
15487;BME280;7845;53.698;10.078;2023-04-19T12:09:33;102310.88;;;16.03;32.79
15487;BME280;7845;53.698;10.078;2023-04-19T12:11:59;102328.22;;;16.35;32.41
15487;BME280;7845;53.698;10.078;2023-04-19T12:14:27;102327.38;;;16.33;32.01
15487;BME280;7845;53.698;10.078;2023-04-19T12:17:10;102315.34;;;15.85;32.23
15487;BME280;7845;53.698;10.078;2023-04-19T12:19:46;102305.28;;;16.50;33.21
15487;BME280;7845;53.698;10.078;2023-04-19T12:22:14;102309.66;;;16.57;33.66
15487;BME280;7845;53.698;10.078;2023-04-19T12:24:40;102315.25;;;15.98;34.12
15487;BME280;7845;53.698;10.078;2023-04-19T12:27:07;102297.47;;;16.37;33.14
15487;BME280;7845;53.698;10.078;2023-04-19T12:29:33;102307.63;;;15.35;32.98
15487;BME280;7845;53.698;10.078;2023-04-19T12:31:59;102294.75;;;16.46;33.93
15487;BME280;7845;53.698;10.078;2023-04-19T12:34:26;102296.00;;;15.93;32.63
15487;BME280;7845;53.698;10.078;2023-04-19T12:36:52;102276.78;;;15.73;33.10
15487;BME280;7845;53.698;10.078;2023-04-19T12:39:17;102313.56;;;15.94;33.01
15487;BME280;7845;53.698;10.078;2023-04-19T12:41:43;102294.41;;;15.58;33.37
15487;BME280;7845;53.698;10.078;2023-04-19T12:44:09;102290.88;;;15.65;33.31
15487;BME280;7845;53.698;10.078;2023-04-19T12:46:34;102290.78;;;15.84;33.08
15487;BME280;7845;53.698;10.078;2023-04-19T12:49:02;102293.13;;;16.33;33.75
15487;BME280;7845;53.698;10.078;2023-04-19T12:51:27;102289.47;;;16.50;32.81
15487;BME280;7845;53.698;10.078;2023-04-19T12:53:54;102300.22;;;16.20;33.24
15487;BME280;7845;53.698;10.078;2023-04-19T12:56:19;102293.44;;;15.75;33.33
15487;BME280;7845;53.698;10.078;2023-04-19T12:58:46;102285.56;;;15.74;32.93
15487;BME280;7845;53.698;10.078;2023-04-19T13:01:12;102294.44;;;15.38;32.74
15487;BME280;7845;53.698;10.078;2023-04-19T13:03:37;102277.63;;;15.80;33.55
15487;BME280;7845;53.698;10.078;2023-04-19T13:06:04;102297.34;;;16.52;33.21